createdAt,value
2018-09-18T00:02:03.363Z,79.30
2018-09-18T00:04:35.203Z,79.10
2018-09-18T00:07:09.001Z,78.80
2018-09-18T00:09:39.621Z,79.30
2018-09-18T00:12:10.265Z,79.20
2018-09-18T00:14:41.230Z,79.50
2018-09-18T00:17:11.047Z,80.70
2018-09-18T00:19:40.748Z,81.50
2018-09-18T00:22:09.694Z,82.20
2018-09-18T00:24:38.771Z,82.50
2018-09-18T00:27:07.744Z,82.60
2018-09-18T00:29:36.739Z,82.10
2018-09-18T00:32:05.822Z,80.80
2018-09-18T00:34:34.846Z,80.50
2018-09-18T00:37:04.144Z,80.50
2018-09-18T00:39:33.157Z,80.40
2018-09-18T00:42:02.101Z,80.90
2018-09-18T00:44:31.294Z,81.60
2018-09-18T00:47:00.256Z,81.90
2018-09-18T00:49:29.246Z,81.80
2018-09-18T00:51:58.259Z,81.10
2018-09-18T00:54:27.218Z,80.90
2018-09-18T00:56:56.207Z,80.90
2018-09-18T00:59:25.184Z,81.20
2018-09-18T01:01:55.084Z,81.10
2018-09-18T01:04:24.175Z,81.30
2018-09-18T01:06:53.930Z,81.40
2018-09-18T01:09:22.889Z,80.60
2018-09-18T01:11:51.881Z,80.10
2018-09-18T01:14:20.874Z,80.70
2018-09-18T01:16:50.178Z,81.70
2018-09-18T01:19:19.150Z,82.20
2018-09-18T01:21:48.139Z,82.60
2018-09-18T01:24:17.090Z,83.80
2018-09-18T01:26:46.097Z,83.80
2018-09-18T01:29:15.110Z,83.30
2018-09-18T01:31:44.091Z,83.90
2018-09-18T01:34:13.860Z,84.20
2018-09-18T01:36:43.669Z,85.30
2018-09-18T01:39:12.724Z,85.30
2018-09-18T01:41:41.686Z,86.00
2018-09-18T01:44:10.651Z,86.20
2018-09-18T01:46:41.384Z,86.20
2018-09-18T01:49:11.395Z,85.50
2018-09-18T01:51:40.679Z,86.40
2018-09-18T01:54:10.809Z,85.80
2018-09-18T01:56:39.810Z,85.60
2018-09-18T01:59:08.860Z,85.20
2018-09-18T02:01:37.910Z,85.40
2018-09-18T02:04:06.894Z,85.60
2018-09-18T02:06:35.888Z,85.70
2018-09-18T02:09:05.860Z,85.10
2018-09-18T02:11:35.839Z,84.70
2018-09-18T02:14:05.086Z,85.40
2018-09-18T02:16:34.066Z,85.70
2018-09-18T02:19:09.560Z,85.90
2018-09-18T02:21:38.523Z,85.60
2018-09-18T02:24:07.472Z,85.20
2018-09-18T02:26:36.570Z,85.60
2018-09-18T02:29:05.634Z,86.10
2018-09-18T02:31:34.650Z,86.50
2018-09-18T02:34:04.489Z,86.80
2018-09-18T02:36:33.537Z,87.30
2018-09-18T02:39:02.542Z,87.30
2018-09-18T02:41:31.525Z,88.40
2018-09-18T02:44:00.886Z,88.00
2018-09-18T02:46:29.947Z,88.10
2018-09-18T02:48:58.898Z,87.80
2018-09-18T02:51:27.936Z,87.40
2018-09-18T02:53:56.904Z,86.80
2018-09-18T02:56:25.906Z,87.10
2018-09-18T02:58:54.869Z,88.00
2018-09-18T03:01:23.845Z,88.90
2018-09-18T03:03:52.839Z,89.00
2018-09-18T03:06:23.626Z,88.70
2018-09-18T03:08:53.513Z,88.80
2018-09-18T03:11:22.589Z,88.60
2018-09-18T03:13:51.537Z,88.10
2018-09-18T03:16:20.512Z,87.90
2018-09-18T03:18:51.033Z,88.20
2018-09-18T03:21:20.075Z,88.40
2018-09-18T03:23:49.111Z,87.90
2018-09-18T03:26:18.080Z,88.00
2018-09-18T03:28:47.075Z,88.30
2018-09-18T03:31:16.133Z,89.10
2018-09-18T03:33:45.148Z,89.90
2018-09-18T03:36:14.144Z,89.80
2018-09-18T03:38:44.145Z,89.60
2018-09-18T03:41:13.219Z,90.00
2018-09-18T03:43:42.248Z,89.30
2018-09-18T03:46:11.224Z,89.50
2018-09-18T03:48:40.293Z,89.50
2018-09-18T03:51:09.540Z,89.60
2018-09-18T03:53:38.531Z,89.50
2018-09-18T03:56:07.768Z,89.10
2018-09-18T03:58:37.696Z,88.30
2018-09-18T04:01:08.294Z,87.40
2018-09-18T04:03:37.693Z,87.40
2018-09-18T04:06:06.835Z,88.30
2018-09-18T04:08:37.509Z,89.30
2018-09-18T04:11:06.737Z,90.10
2018-09-18T04:13:35.712Z,90.30
2018-09-18T04:16:04.658Z,90.60
2018-09-18T04:18:33.651Z,90.30
2018-09-18T04:21:02.631Z,89.00
2018-09-18T04:23:31.673Z,89.60
2018-09-18T04:26:00.745Z,89.30
2018-09-18T04:28:29.732Z,89.60
2018-09-18T04:30:58.694Z,89.60
2018-09-18T04:33:27.645Z,90.00
2018-09-18T04:35:57.395Z,90.10
2018-09-18T04:38:26.355Z,90.30
2018-09-18T04:40:56.952Z,90.50
2018-09-18T04:43:25.925Z,90.80
2018-09-18T04:45:55.019Z,90.90
2018-09-18T04:48:28.826Z,91.00
2018-09-18T04:50:57.778Z,91.10
2018-09-18T04:53:26.750Z,91.10
2018-09-18T04:55:55.741Z,91.30
2018-09-18T04:58:24.750Z,91.50
2018-09-18T05:00:54.654Z,91.70
2018-09-18T05:03:24.441Z,91.70
2018-09-18T05:05:53.409Z,91.80
2018-09-18T05:08:22.385Z,91.50
2018-09-18T05:10:51.445Z,91.50
2018-09-18T05:13:20.410Z,91.40
2018-09-18T05:15:49.397Z,91.40
2018-09-18T05:18:18.407Z,91.40
2018-09-18T05:20:47.358Z,91.30
2018-09-18T05:23:16.457Z,91.30
2018-09-18T05:25:45.426Z,91.20
2018-09-18T05:28:14.425Z,91.30
2018-09-18T05:30:43.373Z,91.10
2018-09-18T05:33:12.348Z,90.40
2018-09-18T05:35:41.309Z,89.40
2018-09-18T05:38:10.399Z,86.60
2018-09-18T05:40:39.638Z,84.80
2018-09-18T05:43:08.780Z,84.10
2018-09-18T05:45:37.738Z,83.80
2018-09-18T05:48:08.007Z,83.80
2018-09-18T05:50:36.995Z,83.50
2018-09-18T05:53:06.363Z,83.10
2018-09-18T05:55:35.321Z,82.40
2018-09-18T06:00:32.976Z,81.20
2018-09-18T06:03:01.965Z,81.20
2018-09-18T06:05:31.000Z,80.30
2018-09-18T06:07:59.965Z,79.80
2018-09-18T06:10:28.970Z,78.90
2018-09-18T06:12:57.931Z,77.40
2018-09-18T06:15:27.001Z,75.10
2018-09-18T06:17:55.992Z,72.00
2018-09-18T06:20:24.966Z,70.10
2018-09-18T06:22:53.927Z,67.00
2018-09-18T06:25:23.581Z,63.30
2018-09-18T06:27:52.823Z,60.00
2018-09-18T06:30:21.973Z,57.40
2018-09-18T06:32:50.969Z,54.80
2018-09-18T06:35:21.461Z,52.70
2018-09-18T06:37:50.434Z,51.20
2018-09-18T06:42:48.029Z,47.90
2018-09-18T06:45:17.330Z,46.00
2018-09-18T06:47:46.370Z,44.30
2018-09-18T06:50:15.344Z,42.60
2018-09-18T06:52:44.293Z,41.20
2018-09-18T06:55:13.344Z,39.40
2018-09-18T06:57:42.402Z,38.10
2018-09-18T07:00:12.580Z,36.40
2018-09-18T07:02:41.536Z,34.30
2018-09-18T07:05:10.661Z,34.10
2018-09-18T07:07:41.198Z,33.50
2018-09-18T07:10:10.597Z,32.80
2018-09-18T07:17:38.106Z,72.80
2018-09-18T07:20:07.698Z,30.60
2018-09-18T07:22:36.669Z,72.90
2018-09-18T07:25:05.668Z,29.30
2018-09-18T07:27:37.119Z,29.00
2018-09-18T07:30:06.969Z,28.70
2018-09-18T07:32:36.190Z,28.50
2018-09-18T07:35:05.797Z,28.30
2018-09-18T07:37:35.071Z,28.50
2018-09-18T07:40:04.149Z,28.50
2018-09-18T07:42:33.252Z,29.00
2018-09-18T07:45:02.348Z,29.10
2018-09-18T07:47:31.352Z,30.30
2018-09-18T07:50:00.342Z,31.00
2018-09-18T07:52:29.396Z,31.90
2018-09-18T07:54:58.397Z,32.30
2018-09-18T07:57:33.943Z,33.10
2018-09-18T08:00:02.914Z,34.20
2018-09-18T08:02:31.820Z,34.90
2018-09-18T08:05:00.848Z,36.90
2018-09-18T08:07:29.757Z,37.30
2018-09-18T08:09:58.685Z,38.20
2018-09-18T08:12:27.644Z,39.40
2018-09-18T08:14:56.574Z,39.80
2018-09-18T08:17:25.566Z,63.50
2018-09-18T08:19:55.201Z,41.00
2018-09-18T08:22:24.880Z,41.90
2018-09-18T08:24:53.846Z,42.90
2018-09-18T08:27:22.803Z,42.80
2018-09-18T08:29:52.211Z,43.30
2018-09-18T08:32:21.157Z,44.00
2018-09-18T08:34:50.064Z,44.20
2018-09-18T08:37:19.058Z,44.40
2018-09-18T08:39:48.144Z,44.70
2018-09-18T08:42:17.444Z,44.20
2018-09-18T08:44:46.396Z,45.00
2018-09-18T08:47:15.426Z,45.70
2018-09-18T08:49:44.436Z,46.00
2018-09-18T08:52:13.488Z,46.30
2018-09-18T08:54:42.460Z,45.70
2018-09-18T08:57:11.479Z,46.10
2018-09-18T08:59:40.499Z,46.50
2018-09-18T09:02:09.676Z,45.90
2018-09-18T09:04:38.701Z,45.80
2018-09-18T09:07:07.803Z,46.00
2018-09-18T09:09:36.780Z,46.10
2018-09-18T09:12:07.084Z,46.00
2018-09-18T09:14:36.068Z,46.00
2018-09-18T09:17:05.875Z,46.00
2018-09-18T09:19:35.627Z,46.20
2018-09-18T09:22:07.089Z,46.50
2018-09-18T09:24:37.417Z,46.00
2018-09-18T09:27:06.470Z,46.40
2018-09-18T09:29:37.275Z,46.10
2018-09-18T09:32:06.480Z,46.30
2018-09-18T09:34:35.394Z,46.20
2018-09-18T09:37:05.259Z,46.20
2018-09-18T09:39:34.130Z,46.20
2018-09-18T09:42:03.155Z,46.70
2018-09-18T09:44:32.117Z,46.30
2018-09-18T09:47:01.573Z,45.90
2018-09-18T09:49:30.480Z,45.50
2018-09-18T09:52:00.399Z,45.60
2018-09-18T09:54:29.951Z,45.90
2018-09-18T09:57:00.084Z,45.80
2018-09-18T09:59:29.030Z,45.50
2018-09-18T10:02:03.296Z,45.60
2018-09-18T10:04:32.217Z,45.60
2018-09-18T10:07:01.174Z,45.40
2018-09-18T10:09:30.399Z,45.50
2018-09-18T10:11:59.363Z,45.10
2018-09-18T10:14:28.752Z,45.30
2018-09-18T10:16:58.013Z,45.00
2018-09-18T10:19:32.414Z,44.70
2018-09-18T10:22:01.412Z,44.50
2018-09-18T10:24:30.337Z,44.80
2018-09-18T10:26:59.392Z,44.50
2018-09-18T10:29:28.604Z,44.70
2018-09-18T10:31:57.569Z,44.80
2018-09-18T10:34:26.523Z,44.50
2018-09-18T10:36:55.464Z,44.90
2018-09-18T10:39:24.470Z,44.60
2018-09-18T10:41:56.171Z,45.00
2018-09-18T10:44:26.068Z,45.10
2018-09-18T10:46:55.954Z,45.00
2018-09-18T10:49:25.859Z,44.80
2018-09-18T10:51:54.911Z,44.20
2018-09-18T10:54:24.172Z,44.20
2018-09-18T10:56:53.122Z,44.10
2018-09-18T10:59:22.037Z,44.50
2018-09-18T11:01:52.155Z,44.30
2018-09-18T11:04:21.086Z,44.30
2018-09-18T11:06:50.312Z,44.50
2018-09-18T11:09:19.529Z,44.30
2018-09-18T11:11:48.573Z,44.10
2018-09-18T11:14:17.746Z,44.20
2018-09-18T11:16:48.417Z,43.80
2018-09-18T11:19:17.816Z,43.70
2018-09-18T11:21:46.901Z,43.90
2018-09-18T11:24:15.887Z,43.90
2018-09-18T11:26:45.556Z,43.60
2018-09-18T11:29:14.539Z,43.10
2018-09-18T11:31:43.503Z,43.60
2018-09-18T11:34:12.479Z,43.80
2018-09-18T11:36:42.712Z,43.50
2018-09-18T11:39:11.649Z,43.60
2018-09-18T11:41:42.032Z,43.70
2018-09-18T11:44:11.712Z,43.60
2018-09-18T11:46:40.757Z,42.60
2018-09-18T11:49:10.829Z,42.70
2018-09-18T11:51:40.009Z,42.80
2018-09-18T11:54:08.975Z,43.20
2018-09-18T11:56:37.947Z,42.50
2018-09-18T11:59:08.351Z,42.50
2018-09-18T12:01:38.103Z,42.90
2018-09-18T12:04:10.012Z,42.00
2018-09-18T12:06:39.725Z,42.70
2018-09-18T12:09:10.990Z,42.50
2018-09-18T12:11:40.480Z,42.10
2018-09-18T12:14:09.419Z,42.10
2018-09-18T12:16:38.732Z,42.80
2018-09-18T12:19:07.679Z,42.60
2018-09-18T12:21:36.586Z,42.60
2018-09-18T12:24:05.520Z,42.60
2018-09-18T12:26:34.442Z,42.30
2018-09-18T12:29:04.824Z,42.60
2018-09-18T12:31:34.310Z,42.60
2018-09-18T12:34:03.241Z,42.30
2018-09-18T12:36:32.837Z,42.40
2018-09-18T12:39:01.799Z,41.90
2018-09-18T12:41:30.811Z,42.00
2018-09-18T12:43:59.661Z,42.50
2018-09-18T12:46:28.580Z,42.40
2018-09-18T12:48:58.111Z,42.60
2018-09-18T12:51:27.090Z,42.90
2018-09-18T12:53:56.034Z,42.60
2018-09-18T12:56:24.977Z,42.90
2018-09-18T12:58:54.079Z,42.90
2018-09-18T13:01:23.568Z,43.10
2018-09-18T13:03:53.564Z,42.80
2018-09-18T13:06:22.598Z,42.60
2018-09-18T13:08:51.444Z,42.30
2018-09-18T13:11:20.434Z,42.70
2018-09-18T13:13:49.757Z,43.00
2018-09-18T13:16:18.893Z,43.10
2018-09-18T13:18:47.990Z,42.70
2018-09-18T13:21:18.025Z,43.00
2018-09-18T13:23:48.087Z,42.50
2018-09-18T13:26:17.032Z,42.30
2018-09-18T13:28:46.513Z,42.70
2018-09-18T13:31:18.175Z,42.40
2018-09-18T13:33:48.869Z,42.20
2018-09-18T13:36:18.983Z,43.10
2018-09-18T13:38:48.234Z,43.10
2018-09-18T13:41:17.495Z,43.40
2018-09-18T13:43:46.587Z,42.90
2018-09-18T13:46:15.700Z,42.50
2018-09-18T13:48:44.634Z,42.90
2018-09-18T13:51:14.617Z,43.00
2018-09-18T13:53:43.566Z,43.10
2018-09-18T13:56:12.649Z,42.80
2018-09-18T13:58:42.643Z,43.20
2018-09-18T14:01:12.709Z,43.20
2018-09-18T14:03:41.659Z,43.60
2018-09-18T14:06:10.919Z,43.70
2018-09-18T14:08:48.225Z,43.50
2018-09-18T14:11:18.329Z,43.70
2018-09-18T14:13:47.267Z,43.70
2018-09-18T14:16:17.249Z,43.70
2018-09-18T14:18:46.371Z,43.20
2018-09-18T14:21:18.221Z,43.70
2018-09-18T14:23:48.005Z,43.10
2018-09-18T14:26:23.572Z,42.90
2018-09-18T14:28:55.528Z,43.40
2018-09-18T14:31:24.498Z,43.10
2018-09-18T14:33:54.865Z,43.30
2018-09-18T14:36:23.810Z,42.50
2018-09-18T14:38:52.767Z,42.30
2018-09-18T14:41:22.545Z,42.70
2018-09-18T14:43:52.921Z,42.70
2018-09-18T14:46:22.161Z,42.80
2018-09-18T14:48:51.096Z,42.80
2018-09-18T14:51:20.095Z,42.80
2018-09-18T14:53:49.003Z,42.70
2018-09-18T14:56:18.075Z,42.60
2018-09-18T14:58:54.435Z,42.30
2018-09-18T15:01:23.369Z,42.80
2018-09-18T15:03:52.309Z,42.80
2018-09-18T15:06:21.359Z,42.10
2018-09-18T15:08:50.373Z,42.10
2018-09-18T15:11:20.124Z,42.40
2018-09-18T15:13:49.092Z,42.80
2018-09-18T15:16:18.115Z,43.00
2018-09-18T15:18:47.040Z,42.70
2018-09-18T15:21:16.015Z,42.50
2018-09-18T15:23:44.948Z,42.50
2018-09-18T15:26:15.720Z,43.10
2018-09-18T15:28:44.828Z,43.10
2018-09-18T15:31:15.154Z,43.30
2018-09-18T15:33:45.148Z,43.70
2018-09-18T15:36:15.148Z,43.40
2018-09-18T15:38:44.812Z,43.40
2018-09-18T15:41:13.729Z,43.10
2018-09-18T15:43:43.671Z,43.10
2018-09-18T15:46:12.660Z,43.30
2018-09-18T15:48:41.705Z,43.30
2018-09-18T15:51:11.872Z,43.20
2018-09-18T15:53:40.843Z,43.10
2018-09-18T15:56:11.911Z,43.10
2018-09-18T15:58:41.336Z,43.30
2018-09-18T16:01:10.581Z,43.10
2018-09-18T16:03:39.697Z,43.30
2018-09-18T16:06:08.608Z,43.40
2018-09-18T16:08:37.816Z,43.70
2018-09-18T16:11:06.796Z,43.50
2018-09-18T16:13:35.837Z,43.40
2018-09-18T16:16:05.781Z,44.00
2018-09-18T16:18:34.699Z,44.10
2018-09-18T16:21:03.882Z,44.50
2018-09-18T16:26:01.957Z,44.30
2018-09-18T16:28:32.037Z,44.80
2018-09-18T16:31:01.597Z,44.80
2018-09-18T16:33:30.523Z,45.10
2018-09-18T16:35:59.499Z,44.80
2018-09-18T16:38:28.421Z,45.20
2018-09-18T16:40:57.426Z,45.60
2018-09-18T16:43:28.420Z,45.50
2018-09-18T16:45:58.851Z,45.80
2018-09-18T16:51:04.538Z,45.70
2018-09-18T16:53:34.328Z,46.70
2018-09-18T16:56:03.320Z,47.40
2018-09-18T16:58:33.544Z,47.30
2018-09-18T17:01:03.191Z,47.20
2018-09-18T17:03:32.174Z,47.40
2018-09-18T17:06:01.711Z,47.50
2018-09-18T17:08:31.768Z,47.60
2018-09-18T17:11:01.742Z,48.10
2018-09-18T17:13:30.687Z,48.50
2018-09-18T17:16:00.324Z,49.30
2018-09-18T17:18:29.766Z,48.90
2018-09-18T17:20:59.213Z,49.10
2018-09-18T17:23:28.846Z,49.00
2018-09-18T17:25:57.795Z,49.20
2018-09-18T17:28:27.384Z,49.30
2018-09-18T17:30:56.268Z,50.20
2018-09-18T17:33:25.256Z,50.30
2018-09-18T17:35:54.216Z,50.20
2018-09-18T17:38:23.740Z,50.00
2018-09-18T17:40:52.736Z,50.20
2018-09-18T17:43:21.642Z,50.20
2018-09-18T17:45:50.564Z,50.20
2018-09-18T17:48:20.588Z,50.20
2018-09-18T17:50:49.538Z,50.80
2018-09-18T17:53:19.255Z,50.40
2018-09-18T17:55:48.163Z,50.40
2018-09-18T17:58:17.547Z,50.70
2018-09-18T18:00:46.523Z,50.60
2018-09-18T18:03:22.060Z,51.20
2018-09-18T18:05:51.753Z,51.30
2018-09-18T18:08:22.162Z,51.50
2018-09-18T18:10:51.268Z,51.50
2018-09-18T18:13:20.966Z,51.50
2018-09-18T18:15:50.013Z,51.90
2018-09-18T18:18:18.974Z,52.60
2018-09-18T18:20:49.117Z,53.20
2018-09-18T18:23:18.082Z,53.70
2018-09-18T18:25:47.040Z,54.20
2018-09-18T18:28:16.119Z,54.70
2018-09-18T18:30:46.183Z,54.80
2018-09-18T18:33:16.639Z,55.20
2018-09-18T18:35:45.624Z,55.10
2018-09-18T18:38:16.084Z,55.60
2018-09-18T18:40:45.113Z,55.50
2018-09-18T18:43:14.078Z,55.50
2018-09-18T18:45:43.006Z,55.80
2018-09-18T18:48:12.157Z,56.00
2018-09-18T18:50:45.074Z,56.50
2018-09-18T18:53:15.045Z,56.70
2018-09-18T18:55:43.958Z,57.10
2018-09-18T18:58:12.916Z,56.90
2018-09-18T19:00:41.916Z,56.70
2018-09-18T19:03:10.831Z,56.40
2018-09-18T19:05:41.267Z,56.20
2018-09-18T19:08:11.847Z,55.90
2018-09-18T19:10:40.816Z,55.90
2018-09-18T19:13:10.982Z,55.90
2018-09-18T19:15:39.932Z,56.00
2018-09-18T19:18:12.330Z,55.90
2018-09-18T19:20:42.281Z,56.40
2018-09-18T19:23:11.231Z,56.80
2018-09-18T19:25:40.779Z,57.80
2018-09-18T19:28:09.851Z,57.20
2018-09-18T19:30:40.495Z,57.30
2018-09-18T19:33:09.550Z,57.40
2018-09-18T19:35:38.452Z,57.20
2018-09-18T19:38:07.379Z,57.10
2018-09-18T19:40:36.343Z,57.50
2018-09-18T19:43:06.333Z,57.50
2018-09-18T19:45:35.762Z,57.60
2018-09-18T19:48:04.686Z,57.70
2018-09-18T19:50:33.689Z,57.60
2018-09-18T19:53:03.010Z,57.60
2018-09-18T19:55:32.000Z,57.70
2018-09-18T19:58:01.771Z,57.70
2018-09-18T20:00:30.757Z,57.60
2018-09-18T20:02:59.680Z,57.40
2018-09-18T20:05:28.634Z,57.20
2018-09-18T20:07:57.571Z,57.30
2018-09-18T20:10:27.036Z,57.20
2018-09-18T20:12:55.982Z,57.10
2018-09-18T20:15:24.938Z,57.20
2018-09-18T20:18:01.665Z,57.50
2018-09-18T20:20:30.745Z,57.50
2018-09-18T20:22:59.685Z,58.00
2018-09-18T20:25:28.638Z,58.30
2018-09-18T20:27:57.836Z,58.60
2018-09-18T20:30:27.440Z,58.80
2018-09-18T20:32:56.455Z,58.90
2018-09-18T20:35:30.180Z,59.00
2018-09-18T20:37:59.544Z,59.00
2018-09-18T20:40:28.502Z,59.40
2018-09-18T20:42:58.308Z,60.10
2018-09-18T20:45:27.627Z,60.30
2018-09-18T20:47:56.587Z,60.60
2018-09-18T20:50:26.182Z,61.50
2018-09-18T20:52:58.962Z,61.40
2018-09-18T20:55:27.988Z,62.10
2018-09-18T20:57:56.921Z,62.60
2018-09-18T21:00:26.473Z,62.60
2018-09-18T21:02:57.979Z,62.50
2018-09-18T21:05:26.897Z,62.50
2018-09-18T21:07:55.819Z,63.20
2018-09-18T21:10:25.810Z,63.50
2018-09-18T21:12:56.405Z,63.80
2018-09-18T21:15:25.373Z,64.10
2018-09-18T21:17:54.296Z,64.30
2018-09-18T21:20:23.238Z,64.70
2018-09-18T21:22:52.178Z,64.90
2018-09-18T21:26:27.683Z,64.90
2018-09-18T21:28:56.629Z,64.90
2018-09-18T21:31:26.980Z,64.70
2018-09-18T21:33:56.535Z,65.10
2018-09-18T21:36:28.771Z,65.00
2018-09-18T21:38:57.728Z,65.50
2018-09-18T21:41:27.165Z,65.90
2018-09-18T21:43:56.233Z,65.40
2018-09-18T21:46:25.487Z,65.20
2018-09-18T21:48:54.472Z,65.80
2018-09-18T21:51:24.137Z,66.10
2018-09-18T21:53:54.990Z,66.30
2018-09-18T21:56:24.131Z,66.50
2018-09-18T21:58:53.065Z,67.30
2018-09-18T22:01:27.123Z,67.40
2018-09-18T22:03:56.275Z,67.40
2018-09-18T22:06:25.253Z,67.90
2018-09-18T22:08:54.174Z,68.50
2018-09-18T22:11:23.497Z,68.70
2018-09-18T22:13:53.066Z,68.70
2018-09-18T22:16:23.718Z,68.70
2018-09-18T22:18:52.696Z,68.80
2018-09-18T22:21:21.733Z,69.40
2018-09-18T22:23:51.321Z,68.60
2018-09-18T22:26:21.622Z,68.20
2018-09-18T22:28:52.206Z,67.70
2018-09-18T22:31:23.556Z,67.40
2018-09-18T22:33:52.590Z,69.20
2018-09-18T22:36:21.525Z,69.60
2018-09-18T22:38:50.642Z,70.50
2018-09-18T22:41:19.663Z,69.50
2018-09-18T22:43:49.471Z,69.30
2018-09-18T22:46:19.654Z,69.50
2018-09-18T22:48:48.595Z,69.80
2018-09-18T22:51:18.238Z,69.90
2018-09-18T22:53:47.172Z,70.30
2018-09-18T22:56:16.106Z,71.60
2018-09-18T22:58:45.063Z,71.30
2018-09-18T23:01:14.063Z,71.10
2018-09-18T23:03:42.976Z,70.10
2018-09-18T23:06:11.907Z,69.50
2018-09-18T23:08:41.636Z,69.90
2018-09-18T23:11:11.502Z,70.00
2018-09-18T23:13:41.021Z,70.90
2018-09-18T23:16:10.666Z,71.00
2018-09-18T23:18:39.639Z,70.90
2018-09-18T23:21:08.538Z,70.30
2018-09-18T23:23:37.470Z,70.50
2018-09-18T23:26:07.603Z,70.40
2018-09-18T23:28:37.251Z,69.80
2018-09-18T23:31:07.776Z,69.80
2018-09-18T23:33:36.720Z,69.50
2018-09-18T23:36:05.794Z,69.80
2018-09-18T23:38:34.744Z,71.10
2018-09-18T23:41:03.673Z,71.70
2018-09-18T23:43:32.674Z,72.20
2018-09-18T23:46:02.107Z,72.40
2018-09-18T23:48:31.031Z,72.80
2018-09-18T23:50:59.957Z,73.30
2018-09-18T23:53:28.934Z,72.90
2018-09-18T23:55:59.303Z,73.10
2018-09-18T23:58:29.434Z,72.40
